Time;durP1;ratioP1;P1;durP2;ratioP2;P2;SDS_P1;SDS_P2;PMS_P1;PMS_P2;Temp;Humidity;BMP_temperature;BMP_pressure;BME280_temperature;BME280_humidity;BME280_pressure;Samples;Min_cycle;Max_cycle;Signal;HPM_P1;HPM_P2
2023/08/03 08:33:53;;;;;;;4.43;2.10;;;17.10;99.90;;;;;;5088614;27;20393;-84
2023/08/03 08:36:18;;;;;;;5.60;2.20;;;17.10;99.90;;;;;;5073397;28;20377;-86
2023/08/03 08:38:46;;;;;;;2.85;2.00;;;17.10;99.90;;;;;;5070302;28;20021;-85
2023/08/03 08:41:12;;;;;;;4.13;1.50;;;17.30;99.90;;;;;;5075424;28;20013;-86
2023/08/03 08:43:41;;;;;;;2.20;1.40;;;17.40;99.90;;;;;;5072440;28;20024;-86
2023/08/03 08:46:07;;;;;;;6.68;1.85;;;17.60;99.90;;;;;;5077173;28;20024;-86
2023/08/03 08:50:35;;;;;;;5.55;1.70;;;17.70;99.90;;;;;;5086277;27;1293375;-85
2023/08/03 08:53:00;;;;;;;6.40;1.92;;;17.80;99.90;;;;;;5105863;28;20094;-87
2023/08/03 08:55:28;;;;;;;5.60;1.95;;;17.80;99.90;;;;;;5092011;28;20063;-84
2023/08/03 08:57:54;;;;;;;9.88;2.53;;;17.80;99.90;;;;;;5103669;28;20012;-85
2023/08/03 09:00:21;;;;;;;7.85;2.10;;;17.90;99.90;;;;;;5102136;28;20352;-86
2023/08/03 09:02:56;;;;;;;10.68;2.28;;;17.90;99.90;;;;;;5101401;28;20023;-86
2023/08/03 09:05:24;;;;;;;4.15;2.15;;;17.90;99.90;;;;;;5103977;28;20039;-85
2023/08/03 09:08:04;;;;;;;5.55;1.95;;;17.90;99.90;;;;;;5103843;28;20028;-85
2023/08/03 09:10:31;;;;;;;4.20;1.90;;;17.90;99.90;;;;;;5104146;28;20036;-86
2023/08/03 09:12:59;;;;;;;5.53;2.30;;;18.00;99.90;;;;;;5103293;28;20502;-86
2023/08/03 09:15:40;;;;;;;5.85;2.30;;;18.00;99.90;;;;;;5102142;28;20085;-86
2023/08/03 09:18:06;;;;;;;4.30;1.88;;;18.00;99.90;;;;;;5102780;28;20036;-87
2023/08/03 09:20:33;;;;;;;5.07;1.83;;;17.90;99.90;;;;;;5102118;28;20111;-87
2023/08/03 09:23:00;;;;;;;4.18;1.80;;;18.00;99.90;;;;;;5102488;28;20056;-87
2023/08/03 09:25:26;;;;;;;7.22;2.03;;;18.00;99.90;;;;;;5102468;28;20087;-85
2023/08/03 09:27:54;;;;;;;5.75;2.00;;;18.00;99.90;;;;;;5103811;28;20062;-85
2023/08/03 09:30:20;;;;;;;9.95;2.33;;;18.00;99.90;;;;;;5099918;28;20036;-86
2023/08/03 09:32:47;;;;;;;6.20;2.42;;;17.80;99.90;;;;;;5099369;28;20118;-86
2023/08/03 09:35:18;;;;;;;9.88;1.92;;;17.80;99.90;;;;;;5102458;28;20058;-86
2023/08/03 09:37:49;;;;;;;6.65;1.88;;;17.80;99.90;;;;;;5101478;28;20023;-85
2023/08/03 09:40:19;;;;;;;13.35;2.05;;;17.80;99.90;;;;;;5101114;28;20115;-84
2023/08/03 09:42:47;;;;;;;6.93;2.55;;;17.80;99.90;;;;;;5093471;28;20031;-84
2023/08/03 09:45:13;;;;;;;3.58;1.77;;;17.70;99.90;;;;;;5102975;28;20088;-86
2023/08/03 09:50:14;;;;;;;4.53;1.88;;;17.80;99.90;;;;;;5010519;26;20081;-79
2023/08/03 09:52:46;;;;;;;6.85;2.33;;;17.70;99.90;;;;;;5016885;28;20025;-81
2023/08/03 09:55:20;;;;;;;5.95;1.75;;;17.80;99.90;;;;;;5015770;28;20029;-80
2023/08/03 09:57:57;;;;;;;5.60;1.38;;;17.70;99.90;;;;;;4992481;28;20033;-80
2023/08/03 10:00:23;;;;;;;6.78;1.63;;;17.60;99.90;;;;;;5020110;28;20036;-80
2023/08/03 10:02:55;;;;;;;7.40;2.47;;;17.70;99.90;;;;;;4997602;28;20589;-79
2023/08/03 10:05:22;;;;;;;6.70;1.65;;;17.70;99.90;;;;;;5015145;28;20070;-80
2023/08/03 10:08:05;;;;;;;7.18;1.58;;;17.70;99.90;;;;;;5019430;28;20088;-80
2023/08/03 10:10:38;;;;;;;3.72;1.40;;;17.80;99.90;;;;;;5011354;28;20029;-80
2023/08/03 10:13:07;;;;;;;4.70;1.50;;;17.90;99.90;;;;;;5000923;28;20372;-80
2023/08/03 10:15:33;;;;;;;5.93;1.65;;;17.80;99.90;;;;;;4991282;28;20052;-80
2023/08/03 10:17:59;;;;;;;4.72;1.58;;;17.80;99.90;;;;;;5013838;28;20085;-81
2023/08/03 10:20:26;;;;;;;6.22;1.98;;;17.90;99.90;;;;;;5008849;28;20029;-81
2023/08/03 10:23:24;;;;;;;6.53;1.63;;;17.90;99.90;;;;;;4993697;28;20076;-81
2023/08/03 10:25:57;;;;;;;13.32;2.20;;;18.00;99.90;;;;;;4988551;28;20038;-80
2023/08/03 10:28:39;;;;;;;8.15;2.55;;;17.80;99.90;;;;;;5013223;28;20551;-80
2023/08/03 10:31:18;;;;;;;6.95;2.03;;;17.80;99.90;;;;;;4987619;28;20039;-79
2023/08/03 10:33:50;;;;;;;5.70;1.70;;;17.80;99.90;;;;;;5016863;28;20124;-79
2023/08/03 10:36:38;;;;;;;8.75;2.38;;;17.80;99.90;;;;;;5011123;28;20036;-80
2023/08/03 10:39:15;;;;;;;6.15;1.60;;;17.90;99.90;;;;;;4995642;28;20670;-81
2023/08/03 10:41:49;;;;;;;5.88;1.98;;;18.00;99.90;;;;;;4998589;28;20127;-80
2023/08/03 10:44:15;;;;;;;3.58;2.00;;;18.40;99.90;;;;;;5015187;28;20031;-80
2023/08/03 10:46:47;;;;;;;5.18;1.98;;;18.60;99.90;;;;;;5013956;28;20074;-80
2023/08/03 10:49:27;;;;;;;10.32;1.75;;;18.70;99.90;;;;;;5013307;28;20560;-81
2023/08/03 10:52:13;;;;;;;4.15;1.70;;;18.70;99.90;;;;;;4990448;28;20120;-80
2023/08/03 10:54:38;;;;;;;4.38;1.88;;;18.70;99.90;;;;;;5017270;28;20562;-81
2023/08/03 10:57:07;;;;;;;6.45;2.05;;;19.10;99.90;;;;;;5008364;28;20234;-80
2023/08/03 10:59:44;;;;;;;6.85;2.10;;;19.50;99.90;;;;;;4998238;28;20018;-80
2023/08/03 11:02:25;;;;;;;7.45;2.38;;;19.70;99.90;;;;;;5010680;28;20482;-81
2023/08/03 11:04:56;;;;;;;6.53;2.00;;;19.90;99.90;;;;;;5015024;28;20171;-81
2023/08/03 11:07:45;;;;;;;4.85;2.33;;;20.30;99.90;;;;;;5012156;28;20019;-80
2023/08/03 11:10:15;;;;;;;7.38;2.10;;;20.60;99.90;;;;;;4992996;28;20039;-80
2023/08/03 11:12:44;;;;;;;2.85;1.80;;;20.60;99.90;;;;;;4981566;28;20029;-82
2023/08/03 11:15:32;;;;;;;6.63;2.00;;;20.70;99.90;;;;;;4968016;28;20018;-81
2023/08/03 11:17:58;;;;;;;6.22;2.00;;;20.30;99.90;;;;;;4969600;28;20035;-81
2023/08/03 11:20:23;;;;;;;3.83;1.80;;;20.40;99.90;;;;;;4994328;28;20143;-80
2023/08/03 11:22:49;;;;;;;10.75;2.70;;;20.40;99.90;;;;;;5002281;28;20053;-81
2023/08/03 11:25:19;;;;;;;4.95;2.00;;;20.40;99.90;;;;;;4977501;28;20035;-81
2023/08/03 11:27:45;;;;;;;6.47;2.50;;;20.20;99.90;;;;;;4998120;28;20026;-81
2023/08/03 11:30:11;;;;;;;4.75;2.42;;;20.40;99.90;;;;;;4996195;28;20037;-79
2023/08/03 11:32:38;;;;;;;6.47;2.47;;;20.30;99.90;;;;;;4997902;28;20030;-79
2023/08/03 11:35:05;;;;;;;4.40;2.53;;;20.50;99.90;;;;;;4983437;28;20156;-81
2023/08/03 11:40:09;;;;;;;6.28;2.50;;;21.00;99.90;;;;;;4993943;22;20055;-80
2023/08/03 11:42:43;;;;;;;8.15;2.63;;;21.00;99.90;;;;;;4946616;28;20054;-81
2023/08/03 11:45:11;;;;;;;8.07;2.22;;;21.10;99.90;;;;;;4948753;28;20584;-81
2023/08/03 11:47:47;;;;;;;5.70;2.38;;;21.40;99.90;;;;;;4946330;28;20028;-80
2023/08/03 11:50:17;;;;;;;7.25;2.53;;;21.60;99.90;;;;;;4947340;28;20027;-81
2023/08/03 11:52:43;;;;;;;7.40;2.35;;;21.90;99.90;;;;;;4948998;28;20447;-80
2023/08/03 11:55:23;;;;;;;7.25;2.20;;;21.80;99.90;;;;;;4930384;28;20062;-81
2023/08/03 11:58:08;;;;;;;9.57;2.15;;;21.90;99.90;;;;;;4930715;28;20086;-79
2023/08/03 12:00:33;;;;;;;3.38;1.60;;;21.80;99.90;;;;;;4929227;28;20042;-80
2023/08/03 12:02:59;;;;;;;7.30;2.47;;;21.70;99.90;;;;;;4931032;29;20032;-81
2023/08/03 12:05:25;;;;;;;7.10;2.00;;;21.50;99.90;;;;;;4947986;28;20168;-81
2023/08/03 12:07:55;;;;;;;3.72;1.58;;;21.20;99.90;;;;;;4930446;28;20435;-80
2023/08/03 12:10:21;;;;;;;10.20;2.03;;;21.10;99.90;;;;;;4947549;28;20027;-80
2023/08/03 12:12:46;;;;;;;10.70;1.63;;;21.00;99.90;;;;;;4930922;28;20046;-81
2023/08/03 12:15:18;;;;;;;5.35;2.10;;;20.90;99.90;;;;;;4948409;28;20066;-81
2023/08/03 12:17:43;;;;;;;8.05;1.95;;;21.00;99.90;;;;;;4947562;28;20242;-81
2023/08/03 12:20:09;;;;;;;6.05;1.52;;;21.00;99.90;;;;;;4948182;28;20028;-80
2023/08/03 12:22:37;;;;;;;3.72;1.60;;;21.10;99.90;;;;;;4929494;28;20397;-81
2023/08/03 12:25:04;;;;;;;8.55;2.00;;;20.90;99.90;;;;;;4946779;28;20053;-80
2023/08/03 12:27:29;;;;;;;6.95;1.90;;;20.80;99.90;;;;;;4947120;28;20210;-81
2023/08/03 12:30:02;;;;;;;6.82;1.85;;;20.70;99.90;;;;;;4946223;28;20130;-80
2023/08/03 12:32:27;;;;;;;;;;;20.50;99.90;;;;;;4946262;28;20471;-79
2023/08/03 12:34:53;;;;;;;4.78;2.38;;;20.50;99.90;;;;;;4948708;28;19914;-79
2023/08/03 12:37:19;;;;;;;3.88;1.60;;;20.30;99.90;;;;;;4930312;29;20083;-79
2023/08/03 12:39:45;;;;;;;5.88;2.00;;;20.40;99.90;;;;;;4930104;28;20390;-77
2023/08/03 12:42:10;;;;;;;3.40;1.88;;;20.50;99.90;;;;;;4945192;28;20554;-79
2023/08/03 12:44:38;;;;;;;11.68;2.22;;;20.10;99.90;;;;;;4945596;28;20023;-78
2023/08/03 12:47:04;;;;;;;5.32;2.42;;;20.10;99.90;;;;;;4948460;28;20051;-77
2023/08/03 12:49:36;;;;;;;10.27;2.60;;;20.00;99.90;;;;;;4946993;28;20039;-78
2023/08/03 12:52:07;;;;;;;24.33;17.45;;;19.90;99.90;;;;;;4947619;28;20122;-79
2023/08/03 12:54:32;;;;;;;14.48;12.13;;;19.70;99.90;;;;;;4945331;28;20027;-79
2023/08/03 12:56:58;;;;;;;9.95;8.90;;;19.40;99.90;;;;;;4949573;28;20035;-79
2023/08/03 12:59:24;;;;;;;13.32;7.65;;;19.30;99.90;;;;;;4944970;28;20027;-78
2023/08/03 13:01:50;;;;;;;7.30;4.03;;;19.30;99.90;;;;;;4945665;28;20039;-77
2023/08/03 13:04:15;;;;;;;10.95;1.50;;;19.10;99.90;;;;;;4947843;28;20059;-78
2023/08/03 13:06:42;;;;;;;5.55;2.25;;;19.00;99.90;;;;;;4944516;28;20490;-78
2023/08/03 13:09:07;;;;;;;4.80;1.40;;;18.90;99.90;;;;;;4948130;28;20039;-79
2023/08/03 13:11:33;;;;;;;2.83;1.13;;;18.90;99.90;;;;;;4930086;28;20054;-79
2023/08/03 13:13:59;;;;;;;5.50;1.80;;;19.00;99.90;;;;;;4946927;28;20059;-78
2023/08/03 13:16:25;;;;;;;2.67;2.40;;;19.00;99.90;;;;;;4948883;28;20145;-78
2023/08/03 13:18:52;;;;;;;2.70;1.27;;;19.00;99.90;;;;;;4946079;28;20059;-78
2023/08/03 13:21:18;;;;;;;4.03;1.25;;;19.00;99.90;;;;;;4946578;28;20027;-80
2023/08/03 13:23:44;;;;;;;4.60;1.65;;;19.10;99.90;;;;;;4946470;28;20023;-78
2023/08/03 13:26:09;;;;;;;6.82;2.20;;;19.20;99.90;;;;;;4948470;28;20031;-82
2023/08/03 13:28:37;;;;;;;4.78;2.15;;;19.10;99.90;;;;;;4946913;28;20035;-78
2023/08/03 13:31:03;;;;;;;2.60;1.40;;;19.00;99.90;;;;;;4927670;28;20027;-78
2023/08/03 13:33:31;;;;;;;2.95;1.13;;;19.00;99.90;;;;;;4947763;28;20414;-78
2023/08/03 13:35:56;;;;;;;4.60;1.77;;;19.10;99.90;;;;;;4949162;28;20035;-81
2023/08/03 13:38:25;;;;;;;5.03;1.98;;;19.10;99.90;;;;;;4930965;29;20530;-78
2023/08/03 13:40:50;;;;;;;3.83;1.13;;;19.20;99.90;;;;;;4948619;28;20023;-79
2023/08/03 13:43:16;;;;;;;4.00;1.40;;;19.30;99.90;;;;;;4934651;28;20085;-79
2023/08/03 13:45:42;;;;;;;3.17;1.33;;;19.20;99.90;;;;;;4949608;28;20031;-79
2023/08/03 13:48:10;;;;;;;3.83;1.65;;;19.30;99.90;;;;;;4958693;28;20042;-84
2023/08/03 13:50:36;;;;;;;2.15;1.35;;;19.40;99.90;;;;;;4957497;28;20039;-85
2023/08/03 13:53:01;;;;;;;6.72;1.23;;;19.50;99.90;;;;;;4953872;28;20475;-86
2023/08/03 13:55:27;;;;;;;3.63;1.30;;;19.50;99.90;;;;;;4952044;28;20079;-86
2023/08/03 13:57:53;;;;;;;2.45;1.48;;;19.50;99.90;;;;;;4953198;28;20027;-86
2023/08/03 14:00:21;;;;;;;3.30;0.90;;;19.60;99.90;;;;;;4949406;28;20479;-83
2023/08/03 14:02:49;;;;;;;2.10;1.05;;;19.60;99.90;;;;;;4951027;28;20055;-86
2023/08/03 14:05:15;;;;;;;1.52;0.80;;;19.70;99.90;;;;;;4951530;28;20023;-86
2023/08/03 14:07:41;;;;;;;5.25;1.20;;;19.80;99.90;;;;;;4937124;29;20122;-86
2023/08/03 14:10:07;;;;;;;8.27;1.08;;;19.80;99.90;;;;;;4962445;28;20036;-86
2023/08/03 14:12:35;;;;;;;2.55;1.00;;;19.90;99.90;;;;;;4959697;28;20114;-85
2023/08/03 14:15:01;;;;;;;1.75;1.00;;;20.00;99.90;;;;;;4938796;28;20047;-85
2023/08/03 14:17:28;;;;;;;1.65;0.90;;;20.10;99.90;;;;;;4953065;28;20019;-86
2023/08/03 14:19:54;;;;;;;2.58;0.88;;;20.20;99.90;;;;;;4934422;29;20621;-86
2023/08/03 14:22:20;;;;;;;5.10;1.45;;;20.30;99.90;;;;;;4950429;28;20027;-87
2023/08/03 14:24:45;;;;;;;5.72;1.65;;;20.20;99.90;;;;;;4952159;28;20086;-86
2023/08/03 14:27:11;;;;;;;2.05;1.30;;;20.30;99.90;;;;;;4950724;28;20110;-85
2023/08/03 14:29:38;;;;;;;2.97;0.55;;;20.20;99.90;;;;;;4954093;28;20031;-90
2023/08/03 14:32:05;;;;;;;1.05;0.65;;;20.00;99.90;;;;;;4953011;28;20042;-87
2023/08/03 14:34:30;;;;;;;0.55;0.50;;;19.80;99.90;;;;;;4953488;28;20251;-85
2023/08/03 14:36:58;;;;;;;0.57;0.30;;;19.80;99.90;;;;;;4953147;28;20027;-84
2023/08/03 14:39:30;;;;;;;1.52;0.70;;;19.70;99.90;;;;;;4948724;28;20035;-87
2023/08/03 14:41:56;;;;;;;2.60;0.90;;;19.80;99.90;;;;;;4952155;28;20027;-86
2023/08/03 14:44:21;;;;;;;4.72;1.20;;;19.90;99.90;;;;;;4951985;28;20069;-87
2023/08/03 14:46:47;;;;;;;1.55;0.93;;;19.70;99.90;;;;;;4933114;28;20372;-86
2023/08/03 14:49:15;;;;;;;3.10;0.98;;;19.50;99.90;;;;;;4952273;28;20039;-86
2023/08/03 14:51:43;;;;;;;5.05;0.68;;;19.50;99.90;;;;;;4950449;28;20015;-87
2023/08/03 14:54:08;;;;;;;6.18;1.15;;;19.50;99.90;;;;;;4952210;28;20028;-86
2023/08/03 14:56:37;;;;;;;3.33;0.70;;;19.30;99.90;;;;;;4951564;28;20059;-86
2023/08/03 14:59:03;;;;;;;5.43;0.70;;;19.40;99.90;;;;;;4949163;28;20031;-85
2023/08/03 15:01:30;;;;;;;6.45;0.90;;;19.20;99.90;;;;;;4949774;28;20029;-86
2023/08/03 15:03:58;;;;;;;1.65;0.75;;;19.30;99.90;;;;;;4949727;28;20062;-86
2023/08/03 15:06:24;;;;;;;1.27;0.60;;;19.20;99.90;;;;;;4953847;28;20049;-86
2023/08/03 15:08:51;;;;;;;3.42;0.68;;;19.30;99.90;;;;;;4933304;29;20535;-86
2023/08/03 15:11:17;;;;;;;2.67;0.98;;;19.40;99.90;;;;;;4933949;29;20038;-86
2023/08/03 15:13:42;;;;;;;1.88;0.80;;;19.30;99.90;;;;;;4949900;28;20479;-85
2023/08/03 15:16:09;;;;;;;1.23;0.85;;;19.40;99.90;;;;;;4950601;28;20075;-86
2023/08/03 15:18:34;;;;;;;4.85;1.00;;;19.40;99.90;;;;;;4950669;28;20106;-86
2023/08/03 15:21:12;;;;;;;2.53;1.13;;;19.50;99.90;;;;;;4949575;28;20150;-86
2023/08/03 15:23:40;;;;;;;1.48;0.80;;;19.50;99.90;;;;;;4947366;28;20070;-87
2023/08/03 15:26:08;;;;;;;1.30;0.90;;;19.70;99.90;;;;;;4950242;28;20024;-87
2023/08/03 15:28:36;;;;;;;1.05;0.65;;;19.90;99.90;;;;;;4949901;28;20031;-87
2023/08/03 15:31:01;;;;;;;1.33;0.80;;;20.00;99.90;;;;;;4932391;28;20071;-85
2023/08/03 15:33:27;;;;;;;3.17;0.80;;;20.10;99.90;;;;;;4934353;29;20051;-88
2023/08/03 15:35:53;;;;;;;18.02;1.65;;;20.20;99.90;;;;;;4933068;28;20035;-87
2023/08/03 15:38:18;;;;;;;2.47;1.08;;;20.20;99.90;;;;;;4951144;28;20054;-87
2023/08/03 15:40:44;;;;;;;1.80;0.85;;;20.30;99.90;;;;;;4952220;29;20070;-86
2023/08/03 15:43:12;;;;;;;13.95;2.45;;;20.30;99.90;;;;;;4949381;28;20030;-86
2023/08/03 15:45:38;;;;;;;5.30;1.08;;;20.20;99.90;;;;;;4934108;29;20082;-86
2023/08/03 15:48:04;;;;;;;2.03;1.02;;;20.10;99.90;;;;;;4934018;28;20114;-87
2023/08/03 15:50:29;;;;;;;6.45;1.45;;;20.20;99.90;;;;;;4933621;28;20057;-87
2023/08/03 15:52:57;;;;;;;5.13;0.85;;;20.30;99.90;;;;;;4951600;28;20448;-87
2023/08/03 15:55:23;;;;;;;1.20;1.05;;;20.50;99.90;;;;;;4949842;28;20039;-86
2023/08/03 15:57:48;;;;;;;4.32;0.85;;;20.60;99.90;;;;;;4942832;28;20541;-87
2023/08/03 16:00:14;;;;;;;3.03;1.05;;;20.80;99.90;;;;;;4931765;28;20023;-87
2023/08/03 16:02:42;;;;;;;5.70;1.10;;;20.90;99.90;;;;;;4949271;28;20055;-87
2023/08/03 16:05:10;;;;;;;1.98;0.88;;;20.90;99.90;;;;;;4931937;28;20027;-87
2023/08/03 16:07:36;;;;;;;5.07;1.00;;;20.90;99.90;;;;;;4948268;28;20038;-86
2023/08/03 16:10:02;;;;;;;2.47;0.98;;;20.80;99.90;;;;;;4948430;28;20035;-90
2023/08/03 16:12:27;;;;;;;5.38;1.40;;;20.80;99.90;;;;;;4951104;28;20454;-89
2023/08/03 16:14:53;;;;;;;5.28;1.33;;;20.80;99.90;;;;;;4950331;28;20045;-90
2023/08/03 16:17:20;;;;;;;5.32;1.30;;;20.80;99.90;;;;;;4937889;28;20027;-89
2023/08/03 16:19:46;;;;;;;3.28;0.90;;;20.90;99.90;;;;;;4934469;29;20043;-91
2023/08/03 16:22:14;;;;;;;3.30;0.98;;;21.00;99.90;;;;;;4932759;28;20063;-83
2023/08/03 16:24:39;;;;;;;6.35;1.52;;;21.00;99.90;;;;;;4951214;28;20027;-90
2023/08/03 16:27:08;;;;;;;2.70;1.40;;;21.10;99.90;;;;;;4949845;28;20447;-90
2023/08/03 16:29:35;;;;;;;4.55;1.40;;;21.10;99.90;;;;;;4931220;29;20137;-91
2023/08/03 16:32:01;;;;;;;2.28;1.23;;;21.20;99.90;;;;;;4949629;28;20031;-86
2023/08/03 16:34:27;;;;;;;6.15;1.30;;;21.20;99.90;;;;;;4930186;28;20026;-91
2023/08/03 16:36:52;;;;;;;5.60;1.25;;;21.20;99.90;;;;;;4948720;28;20500;-87
2023/08/03 16:39:18;;;;;;;5.00;1.33;;;21.10;99.90;;;;;;4930862;28;20059;-90
2023/08/03 16:41:45;;;;;;;8.30;1.20;;;21.20;99.90;;;;;;4933494;29;20510;-88
2023/08/03 16:44:13;;;;;;;2.00;1.05;;;21.20;99.90;;;;;;4947588;28;20027;-90
2023/08/03 16:46:42;;;;;;;1.48;1.13;;;21.20;99.90;;;;;;4951363;28;20035;-93
2023/08/03 16:49:12;;;;;;;3.15;1.05;;;21.10;99.90;;;;;;4942076;29;20039;-92
2023/08/03 16:51:37;;;;;;;1.65;1.20;;;21.00;99.90;;;;;;4941625;28;20011;-87
2023/08/03 16:54:03;;;;;;;2.28;1.23;;;20.90;99.90;;;;;;4971230;28;20046;-87
2023/08/03 16:56:31;;;;;;;2.08;1.88;;;20.80;99.90;;;;;;4970788;28;20065;-93
2023/08/03 16:58:59;;;;;;;5.55;1.48;;;20.70;99.90;;;;;;4936744;29;20019;-90
2023/08/03 17:01:24;;;;;;;8.45;1.05;;;20.70;99.90;;;;;;4934991;29;20090;-90
2023/08/03 17:03:50;;;;;;;4.00;1.20;;;20.50;99.90;;;;;;4932757;28;20127;-87
2023/08/03 17:06:16;;;;;;;5.82;1.63;;;20.30;99.90;;;;;;4951037;28;20031;-92
2023/08/03 17:08:41;;;;;;;8.05;1.50;;;20.10;99.90;;;;;;4933298;29;20136;-92
2023/08/03 17:11:07;;;;;;;7.47;1.75;;;20.00;99.90;;;;;;4935226;29;20110;-93
2023/08/03 17:13:33;;;;;;;10.02;1.90;;;19.90;99.90;;;;;;4952381;28;20062;-91
2023/08/03 17:16:03;;;;;;;4.10;1.38;;;19.90;99.90;;;;;;4954174;28;20035;-92
2023/08/03 17:18:29;;;;;;;4.45;1.38;;;19.70;99.90;;;;;;4939843;28;20027;-92
2023/08/03 17:20:55;;;;;;;8.77;1.80;;;19.70;99.90;;;;;;4950405;29;20028;-90
2023/08/03 17:23:20;;;;;;;6.82;1.40;;;19.70;99.90;;;;;;4967029;28;20094;-92
2023/08/03 17:25:47;;;;;;;6.93;1.77;;;19.70;99.90;;;;;;4959461;28;20058;-89
2023/08/03 17:28:15;;;;;;;3.38;1.30;;;19.80;99.90;;;;;;4957758;28;20031;-90
2023/08/03 17:30:41;;;;;;;6.20;1.80;;;19.70;99.90;;;;;;4952145;28;20495;-91
2023/08/03 17:33:07;;;;;;;6.63;2.00;;;19.60;99.90;;;;;;4938391;28;20031;-90
2023/08/03 17:35:32;;;;;;;8.52;1.83;;;19.60;99.90;;;;;;4939867;29;20039;-92
2023/08/03 17:38:01;;;;;;;4.15;1.95;;;19.50;99.90;;;;;;4954864;28;20023;-92
2023/08/03 17:40:26;;;;;;;7.75;1.90;;;19.60;99.90;;;;;;4955249;28;20338;-91
2023/08/03 17:42:52;;;;;;;5.78;1.75;;;19.70;99.90;;;;;;4954154;28;20019;-90
2023/08/03 17:45:21;;;;;;;7.63;2.30;;;19.60;99.90;;;;;;4954742;28;20027;-90
2023/08/03 17:47:46;;;;;;;7.28;1.85;;;19.60;99.90;;;;;;4940717;29;20023;-91
2023/08/03 17:50:12;;;;;;;6.40;2.20;;;19.60;99.90;;;;;;4937074;29;20494;-91
2023/08/03 17:52:37;;;;;;;8.55;1.65;;;19.60;99.90;;;;;;4951599;29;20104;-87
2023/08/03 17:55:03;;;;;;;14.07;2.00;;;19.50;99.90;;;;;;4945544;28;20023;-90
2023/08/03 17:57:30;;;;;;;8.40;1.60;;;19.40;99.90;;;;;;4959217;28;20042;-89
2023/08/03 18:00:03;;;;;;;8.05;1.95;;;19.40;99.90;;;;;;4941859;28;20030;-90
2023/08/03 18:02:29;;;;;;;7.78;2.28;;;19.30;99.90;;;;;;4927493;29;20042;-90
2023/08/03 18:04:56;;;;;;;10.32;1.98;;;19.30;99.90;;;;;;4938875;29;20451;-91
2023/08/03 18:07:23;;;;;;;5.72;2.00;;;19.20;99.90;;;;;;4956347;28;20016;-91
2023/08/03 18:09:53;;;;;;;5.57;1.83;;;19.30;99.90;;;;;;4959926;28;20039;-90
2023/08/03 18:12:19;;;;;;;9.73;2.35;;;19.40;99.90;;;;;;4933022;28;20019;-81
2023/08/03 18:14:48;;;;;;;8.82;2.20;;;19.50;99.90;;;;;;4934341;28;20365;-81
2023/08/03 18:17:15;;;;;;;7.70;2.03;;;19.60;99.90;;;;;;4935007;29;20027;-81
2023/08/03 18:19:41;;;;;;;4.28;1.83;;;19.60;99.90;;;;;;4932299;28;20503;-81
2023/08/03 18:22:09;;;;;;;5.78;1.88;;;19.60;99.90;;;;;;4935032;28;20067;-80
2023/08/03 18:24:38;;;;;;;10.63;1.70;;;19.70;99.90;;;;;;4952785;28;20030;-81
2023/08/03 18:27:04;;;;;;;9.10;1.85;;;19.70;99.90;;;;;;4952013;28;20050;-79
2023/08/03 18:29:33;;;;;;;4.95;1.88;;;19.60;99.90;;;;;;4952204;28;20062;-81
2023/08/03 18:31:59;;;;;;;6.28;2.35;;;19.60;99.90;;;;;;4931533;29;20024;-80
2023/08/03 18:34:28;;;;;;;7.20;2.10;;;19.60;99.90;;;;;;4933743;28;20027;-81
2023/08/03 18:36:54;;;;;;;8.32;2.05;;;19.60;99.90;;;;;;4950367;28;20028;-81
2023/08/03 18:39:19;;;;;;;5.68;1.80;;;19.60;99.90;;;;;;4951836;28;20027;-81
2023/08/03 18:41:45;;;;;;;8.73;1.60;;;19.60;99.90;;;;;;4951518;28;20093;-81
2023/08/03 18:44:14;;;;;;;7.25;2.13;;;19.50;99.90;;;;;;4950846;28;20387;-81
2023/08/03 18:46:41;;;;;;;6.20;1.60;;;19.50;99.90;;;;;;4951604;28;20019;-80
2023/08/03 18:49:07;;;;;;;13.98;2.53;;;19.50;99.90;;;;;;4951900;28;20015;-81
2023/08/03 18:51:32;;;;;;;7.88;1.90;;;19.30;99.90;;;;;;4935311;28;20070;-81
2023/08/03 18:54:06;;;;;;;6.35;1.95;;;19.30;99.90;;;;;;4949956;28;20035;-81
2023/08/03 18:56:32;;;;;;;13.77;2.33;;;19.30;99.90;;;;;;4936921;29;20400;-90
2023/08/03 18:59:01;;;;;;;12.68;2.42;;;19.30;99.90;;;;;;4952621;28;20027;-90
2023/08/03 19:01:33;;;;;;;5.82;1.92;;;19.30;99.90;;;;;;4927395;29;20039;-90
2023/08/03 19:03:59;;;;;;;8.43;1.95;;;19.20;99.90;;;;;;4936011;28;20094;-85
2023/08/03 19:06:28;;;;;;;6.53;1.80;;;19.10;99.90;;;;;;4952451;28;20024;-89
2023/08/03 19:08:53;;;;;;;7.63;2.30;;;19.00;99.90;;;;;;4953738;28;20034;-90
2023/08/03 19:11:25;;;;;;;10.77;2.55;;;18.90;99.90;;;;;;4952248;28;20019;-86
2023/08/03 19:13:51;;;;;;;14.27;2.50;;;18.90;99.90;;;;;;4953552;28;20031;-89
2023/08/03 19:16:23;;;;;;;9.30;2.20;;;18.70;99.90;;;;;;4954241;28;20045;-91
2023/08/03 19:18:49;;;;;;;9.68;2.08;;;18.80;99.90;;;;;;4935480;28;20102;-90
2023/08/03 19:21:14;;;;;;;10.38;2.30;;;18.70;99.90;;;;;;4935871;29;20155;-91
2023/08/03 19:23:48;;;;;;;5.32;1.60;;;18.60;99.90;;;;;;4935449;28;20034;-92
2023/08/03 19:26:18;;;;;;;6.95;1.92;;;18.70;99.90;;;;;;4937372;29;20062;-91
2023/08/03 19:28:45;;;;;;;9.40;1.92;;;18.60;99.90;;;;;;4930493;28;20126;-90
2023/08/03 19:31:13;;;;;;;7.03;1.67;;;18.60;99.90;;;;;;4953743;28;20102;-86
2023/08/03 19:33:46;;;;;;;7.85;1.67;;;18.60;99.90;;;;;;4936276;28;20743;-91
2023/08/03 19:36:18;;;;;;;4.70;2.10;;;18.50;99.90;;;;;;4934496;29;20027;-90
2023/08/03 19:38:44;;;;;;;10.93;2.10;;;18.50;99.90;;;;;;4933210;28;20046;-91
2023/08/03 19:41:10;;;;;;;9.07;1.70;;;18.40;99.90;;;;;;4935976;28;20015;-90
2023/08/03 19:43:35;;;;;;;10.90;2.22;;;18.40;99.90;;;;;;4952218;28;20451;-90
2023/08/03 19:46:07;;;;;;;10.27;2.15;;;18.50;99.90;;;;;;4933893;28;20020;-89
2023/08/03 19:48:32;;;;;;;8.98;2.00;;;18.40;99.90;;;;;;4930115;29;20122;-91
2023/08/03 19:51:01;;;;;;;17.80;2.75;;;18.40;99.90;;;;;;4935909;29;20705;-91
2023/08/03 19:53:29;;;;;;;10.15;2.58;;;18.40;99.90;;;;;;4953446;28;20037;-90
2023/08/03 19:55:55;;;;;;;9.07;2.45;;;18.40;99.90;;;;;;4937476;28;20034;-90
2023/08/03 19:58:21;;;;;;;13.10;2.50;;;18.40;99.90;;;;;;4964148;28;20046;-88
2023/08/03 20:00:49;;;;;;;9.13;2.15;;;18.40;99.90;;;;;;4975447;28;20043;-88
2023/08/03 20:03:15;;;;;;;5.32;1.88;;;18.30;99.90;;;;;;4973860;28;20028;-87
2023/08/03 20:05:42;;;;;;;8.55;2.30;;;18.30;99.90;;;;;;4956016;28;20035;-87
2023/08/03 20:08:10;;;;;;;9.55;1.95;;;18.30;99.90;;;;;;4949517;28;20039;-89
2023/08/03 20:10:36;;;;;;;5.18;2.20;;;18.30;99.90;;;;;;4950797;28;20086;-91
2023/08/03 20:13:02;;;;;;;12.25;2.50;;;18.30;99.90;;;;;;4935451;28;20114;-90
2023/08/03 20:15:27;;;;;;;10.77;2.55;;;18.20;99.90;;;;;;4959765;28;20399;-88
2023/08/03 20:17:53;;;;;;;6.20;2.65;;;18.20;99.90;;;;;;4964370;28;20051;-91
2023/08/03 20:20:27;;;;;;;13.80;3.08;;;18.20;99.90;;;;;;4944732;28;20098;-89
2023/08/03 20:22:53;;;;;;;7.97;2.20;;;18.10;99.90;;;;;;4955071;28;20031;-90
2023/08/03 20:25:21;;;;;;;2.88;1.63;;;18.00;99.90;;;;;;4933160;28;20031;-90
2023/08/03 20:27:46;;;;;;;13.27;2.42;;;18.00;99.90;;;;;;4955217;28;20023;-91
2023/08/03 20:30:12;;;;;;;9.48;1.70;;;18.00;99.90;;;;;;4934716;28;20107;-91
2023/08/03 20:32:37;;;;;;;2.75;1.80;;;18.00;99.90;;;;;;4937406;29;20023;-91
2023/08/03 20:35:04;;;;;;;9.13;2.05;;;18.00;99.90;;;;;;4936944;28;20047;-90
2023/08/03 20:37:29;;;;;;;5.38;1.98;;;18.00;99.90;;;;;;4951866;28;20028;-90
2023/08/03 20:39:55;;;;;;;10.68;1.90;;;18.00;99.90;;;;;;4934335;28;20514;-80
2023/08/03 20:42:23;;;;;;;10.70;1.85;;;18.00;99.90;;;;;;4949139;28;20023;-80
2023/08/03 20:44:57;;;;;;;7.03;1.80;;;17.90;99.90;;;;;;4934776;29;20106;-80
2023/08/03 20:47:23;;;;;;;7.72;1.88;;;17.90;99.90;;;;;;4948964;28;20058;-81
2023/08/03 20:49:49;;;;;;;10.93;2.00;;;17.90;99.90;;;;;;4933852;28;20480;-80
2023/08/03 20:52:15;;;;;;;10.30;2.00;;;17.90;99.90;;;;;;4953122;28;20023;-80
2023/08/03 20:54:40;;;;;;;13.00;2.20;;;17.90;99.90;;;;;;4931408;28;20033;-80
2023/08/03 20:57:06;;;;;;;12.27;1.88;;;17.90;99.90;;;;;;4951303;28;20047;-80
2023/08/03 20:59:34;;;;;;;10.68;2.40;;;17.90;99.90;;;;;;4950688;28;20027;-79
2023/08/03 21:01:59;;;;;;;7.03;1.92;;;18.00;99.90;;;;;;4932226;29;20031;-80
2023/08/03 21:04:27;;;;;;;7.07;2.00;;;18.00;99.90;;;;;;4950951;28;20387;-80
2023/08/03 21:06:53;;;;;;;12.73;2.00;;;17.90;99.90;;;;;;4951886;28;20033;-80
2023/08/03 21:09:19;;;;;;;14.65;2.03;;;18.00;99.90;;;;;;4933750;28;20398;-79
2023/08/03 21:11:44;;;;;;;6.80;1.77;;;18.00;99.90;;;;;;4950027;28;20109;-80
2023/08/03 21:14:10;;;;;;;5.70;1.63;;;18.00;99.90;;;;;;4953680;28;20093;-92
2023/08/03 21:16:39;;;;;;;9.05;2.10;;;18.00;99.90;;;;;;4956684;28;20352;-91
2023/08/03 21:19:05;;;;;;;10.27;2.67;;;18.00;99.90;;;;;;4919563;29;20019;-93
2023/08/03 21:21:32;;;;;;;4.45;2.13;;;18.00;99.90;;;;;;4923934;28;20034;-92
2023/08/03 21:23:59;;;;;;;6.72;1.83;;;17.90;99.90;;;;;;4957713;28;20026;-92
2023/08/03 21:26:25;;;;;;;10.82;1.95;;;17.90;99.90;;;;;;4941218;28;20034;-93
2023/08/03 21:28:51;;;;;;;7.57;1.80;;;17.90;99.90;;;;;;4957112;28;20046;-94